logo
Rechercher aéroport 
image banner adimage banner adimage banner ad
image banner ad

MDBC - Batey Cacata

Situé à , Dominican Republic

ICAO - MDBC, IATA -

Données fournies par Airmate  

Information générale

Coordonnées: N18°28'45" W68°54'51"
Élévation : 312 feet MSL.
 
Voir autres Aéroports à La Romana Province

Données opérationnelles

Special qualification required
Heure actuelle UTC:
Heure actuelle locale:
METAR: MDLR 241800Z 00000KT 8000 -RA BKN018 26/25 Q1015
TAF: TAF MDLR 241600Z 2418/2518 05010KT 9999 SCT020 PROB30 2418/2500 6000 -TSRA FEW014CB BKN016 BECMG 2500/2502 00000KT
Voir NOTAMs / SUP AIP / TFR affectant cet aéroport [VIEW]
Fréquences de communication: [VIEW]

Pistes:

Identifiant RWYQFULongueur (ft)Largeur (ft)SurfaceLDA (ft)
093281276UNK
273281276UNK

Coordonnées de l'aéroport

Adresse: Dominican Republic

Vue satellite de MDBC